sensor_id;sensor_type;location;lat;lon;timestamp;pressure;altitude;pressure_sealevel;temperature;humidity
5053;BME280;2545;50.892;5.740;2023-04-19T00:02:17;56167.00;;;-142.21;79.89
5053;BME280;2545;50.892;5.740;2023-04-19T00:04:43;56206.22;;;-142.21;79.52
5053;BME280;2545;50.892;5.740;2023-04-19T00:07:09;56151.31;;;-142.21;79.74
5053;BME280;2545;50.892;5.740;2023-04-19T00:09:35;56184.66;;;-142.21;79.30
5053;BME280;2545;50.892;5.740;2023-04-19T00:12:01;56182.69;;;-142.21;79.19
5053;BME280;2545;50.892;5.740;2023-04-19T00:14:26;56174.84;;;-142.21;79.28
5053;BME280;2545;50.892;5.740;2023-04-19T00:16:52;56212.09;;;-142.21;79.34
5053;BME280;2545;50.892;5.740;2023-04-19T00:19:17;56167.00;;;-142.21;78.68
5053;BME280;2545;50.892;5.740;2023-04-19T00:21:42;56172.88;;;-142.21;79.14
5053;BME280;2545;50.892;5.740;2023-04-19T00:24:08;56210.13;;;-142.21;78.54
5053;BME280;2545;50.892;5.740;2023-04-19T00:26:33;56167.00;;;-142.21;78.95
5053;BME280;2545;50.892;5.740;2023-04-19T00:28:58;56178.75;;;-142.21;78.49
5053;BME280;2545;50.892;5.740;2023-04-19T00:31:23;56178.75;;;-142.21;78.06
5053;BME280;2545;50.892;5.740;2023-04-19T00:33:49;56214.06;;;-142.21;77.78
5053;BME280;2545;50.892;5.740;2023-04-19T00:36:14;56182.69;;;-142.21;77.98
5053;BME280;2545;50.892;5.740;2023-04-19T00:38:40;56176.78;;;-142.21;77.99
5053;BME280;2545;50.892;5.740;2023-04-19T00:41:05;56182.69;;;-142.21;78.31
5053;BME280;2545;50.892;5.740;2023-04-19T00:43:30;56182.69;;;-142.21;78.11
5053;BME280;2545;50.892;5.740;2023-04-19T00:45:56;56143.47;;;-142.21;78.44
5053;BME280;2545;50.892;5.740;2023-04-19T00:48:21;56165.03;;;-142.21;78.37
5053;BME280;2545;50.892;5.740;2023-04-19T00:50:47;56200.34;;;-142.21;78.41
5053;BME280;2545;50.892;5.740;2023-04-19T00:53:12;56157.19;;;-142.21;78.41
5053;BME280;2545;50.892;5.740;2023-04-19T00:55:38;56172.88;;;-142.21;78.58
5053;BME280;2545;50.892;5.740;2023-04-19T00:58:08;56170.91;;;-142.21;78.02
5053;BME280;2545;50.892;5.740;2023-04-19T01:00:34;56178.75;;;-142.21;77.97
5053;BME280;2545;50.892;5.740;2023-04-19T01:03:00;56200.34;;;-142.21;78.05
5053;BME280;2545;50.892;5.740;2023-04-19T01:05:25;56212.09;;;-142.21;77.32
5053;BME280;2545;50.892;5.740;2023-04-19T01:07:50;56210.13;;;-142.21;77.23
5053;BME280;2545;50.892;5.740;2023-04-19T01:10:16;56198.38;;;-142.21;77.25
5053;BME280;2545;50.892;5.740;2023-04-19T01:12:41;56163.06;;;-142.21;77.08
5053;BME280;2545;50.892;5.740;2023-04-19T01:15:07;56143.47;;;-142.21;77.16
5053;BME280;2545;50.892;5.740;2023-04-19T01:17:33;56186.59;;;-142.21;77.71
5053;BME280;2545;50.892;5.740;2023-04-19T01:20:00;56178.75;;;-142.21;77.74
5053;BME280;2545;50.892;5.740;2023-04-19T01:22:25;56180.72;;;-142.21;77.83
5053;BME280;2545;50.892;5.740;2023-04-19T01:24:52;56161.13;;;-142.21;77.83
5053;BME280;2545;50.892;5.740;2023-04-19T01:27:17;56204.25;;;-142.21;78.70
5053;BME280;2545;50.892;5.740;2023-04-19T01:29:45;56165.03;;;-142.21;78.79
5053;BME280;2545;50.892;5.740;2023-04-19T01:32:10;56190.53;;;-142.21;78.76
5053;BME280;2545;50.892;5.740;2023-04-19T01:34:37;56221.91;;;-142.21;79.54
5053;BME280;2545;50.892;5.740;2023-04-19T01:37:02;56184.66;;;-142.21;79.91
5053;BME280;2545;50.892;5.740;2023-04-19T01:39:28;56217.97;;;-142.21;80.05
5053;BME280;2545;50.892;5.740;2023-04-19T01:41:53;56167.00;;;-142.21;79.79
5053;BME280;2545;50.892;5.740;2023-04-19T01:44:18;56143.47;;;-142.21;79.67
5053;BME280;2545;50.892;5.740;2023-04-19T01:46:44;56221.91;;;-142.21;80.15
5053;BME280;2545;50.892;5.740;2023-04-19T01:49:09;56192.50;;;-142.21;80.11
5053;BME280;2545;50.892;5.740;2023-04-19T01:51:37;56200.34;;;-142.21;79.89
5053;BME280;2545;50.892;5.740;2023-04-19T01:54:03;56172.88;;;-142.21;80.36
5053;BME280;2545;50.892;5.740;2023-04-19T01:56:28;56155.22;;;-142.21;79.83
5053;BME280;2545;50.892;5.740;2023-04-19T01:58:54;56139.53;;;-142.21;80.23
5053;BME280;2545;50.892;5.740;2023-04-19T02:01:19;56190.53;;;-142.21;80.02
5053;BME280;2545;50.892;5.740;2023-04-19T02:03:44;56198.38;;;-142.21;80.80
5053;BME280;2545;50.892;5.740;2023-04-19T02:06:11;56192.50;;;-142.21;80.92
5053;BME280;2545;50.892;5.740;2023-04-19T02:08:40;56196.41;;;-142.21;80.92
5053;BME280;2545;50.892;5.740;2023-04-19T02:11:11;56167.00;;;-142.21;81.21
5053;BME280;2545;50.892;5.740;2023-04-19T02:13:38;56182.69;;;-142.21;81.11
5053;BME280;2545;50.892;5.740;2023-04-19T02:16:04;56186.59;;;-142.21;81.12
5053;BME280;2545;50.892;5.740;2023-04-19T02:18:30;56151.31;;;-142.21;81.50
5053;BME280;2545;50.892;5.740;2023-04-19T02:20:57;56159.16;;;-142.21;81.67
5053;BME280;2545;50.892;5.740;2023-04-19T02:23:22;56168.97;;;-142.21;81.99
5053;BME280;2545;50.892;5.740;2023-04-19T02:25:48;56178.75;;;-142.21;82.01
5053;BME280;2545;50.892;5.740;2023-04-19T02:28:13;56202.28;;;-142.21;82.49
5053;BME280;2545;50.892;5.740;2023-04-19T02:30:38;56186.59;;;-142.21;83.09
5053;BME280;2545;50.892;5.740;2023-04-19T02:33:04;56182.69;;;-142.21;83.72
5053;BME280;2545;50.892;5.740;2023-04-19T02:35:29;56167.00;;;-142.21;84.98
5053;BME280;2545;50.892;5.740;2023-04-19T02:37:54;56170.91;;;-142.21;86.92
5053;BME280;2545;50.892;5.740;2023-04-19T02:40:20;56176.78;;;-142.21;87.89
5053;BME280;2545;50.892;5.740;2023-04-19T02:42:47;56174.84;;;-142.21;88.21
5053;BME280;2545;50.892;5.740;2023-04-19T02:45:12;56182.69;;;-142.21;89.37
5053;BME280;2545;50.892;5.740;2023-04-19T02:47:37;56147.38;;;-142.21;90.49
5053;BME280;2545;50.892;5.740;2023-04-19T02:50:03;56190.53;;;-142.21;91.30
5053;BME280;2545;50.892;5.740;2023-04-19T02:52:28;56172.88;;;-142.21;91.70
5053;BME280;2545;50.892;5.740;2023-04-19T02:54:54;56170.91;;;-142.21;93.47
5053;BME280;2545;50.892;5.740;2023-04-19T02:57:19;56196.41;;;-142.21;94.64
5053;BME280;2545;50.892;5.740;2023-04-19T02:59:45;56178.75;;;-142.21;95.25
5053;BME280;2545;50.892;5.740;2023-04-19T03:02:10;56192.50;;;-142.21;95.90
5053;BME280;2545;50.892;5.740;2023-04-19T03:04:35;56182.69;;;-142.21;96.18
5053;BME280;2545;50.892;5.740;2023-04-19T03:07:01;56200.34;;;-142.21;96.15
5053;BME280;2545;50.892;5.740;2023-04-19T03:09:26;56202.28;;;-142.21;96.53
5053;BME280;2545;50.892;5.740;2023-04-19T03:11:51;56196.41;;;-142.21;96.84
5053;BME280;2545;50.892;5.740;2023-04-19T03:14:17;56184.66;;;-142.21;97.61
5053;BME280;2545;50.892;5.740;2023-04-19T03:16:42;56174.84;;;-142.21;97.93
5053;BME280;2545;50.892;5.740;2023-04-19T03:19:08;56241.50;;;-142.21;98.37
5053;BME280;2545;50.892;5.740;2023-04-19T03:21:33;56176.78;;;-142.21;98.92
5053;BME280;2545;50.892;5.740;2023-04-19T03:23:58;56188.56;;;-142.21;98.85
5053;BME280;2545;50.892;5.740;2023-04-19T03:26:24;56200.34;;;-142.21;99.58
5053;BME280;2545;50.892;5.740;2023-04-19T03:28:49;56174.84;;;-142.21;100.00
5053;BME280;2545;50.892;5.740;2023-04-19T03:31:15;56178.75;;;-142.21;100.00
5053;BME280;2545;50.892;5.740;2023-04-19T03:33:40;56216.00;;;-142.21;100.00
5053;BME280;2545;50.892;5.740;2023-04-19T03:36:06;56168.97;;;-142.21;100.00
5053;BME280;2545;50.892;5.740;2023-04-19T03:38:31;56174.84;;;-142.21;100.00
5053;BME280;2545;50.892;5.740;2023-04-19T03:40:56;56235.63;;;-142.21;100.00
5053;BME280;2545;50.892;5.740;2023-04-19T03:43:22;56198.38;;;-142.21;100.00
5053;BME280;2545;50.892;5.740;2023-04-19T03:45:48;56268.97;;;-142.21;100.00
5053;BME280;2545;50.892;5.740;2023-04-19T03:48:14;56174.84;;;-142.21;100.00
5053;BME280;2545;50.892;5.740;2023-04-19T03:50:39;56174.84;;;-142.21;100.00
5053;BME280;2545;50.892;5.740;2023-04-19T03:53:04;56163.06;;;-142.21;100.00
5053;BME280;2545;50.892;5.740;2023-04-19T03:55:30;56178.75;;;-142.21;99.18
5053;BME280;2545;50.892;5.740;2023-04-19T03:57:55;56174.84;;;-142.21;98.43
5053;BME280;2545;50.892;5.740;2023-04-19T04:00:21;56141.50;;;-142.21;98.00
5053;BME280;2545;50.892;5.740;2023-04-19T04:02:46;56188.56;;;-142.21;97.70
5053;BME280;2545;50.892;5.740;2023-04-19T04:05:12;56184.66;;;-142.21;97.09
5053;BME280;2545;50.892;5.740;2023-04-19T04:07:37;56208.16;;;-142.21;96.92
5053;BME280;2545;50.892;5.740;2023-04-19T04:10:03;56172.88;;;-142.21;96.60
5053;BME280;2545;50.892;5.740;2023-04-19T04:12:28;56151.31;;;-142.21;97.14
5053;BME280;2545;50.892;5.740;2023-04-19T04:14:53;56155.22;;;-142.21;96.66
5053;BME280;2545;50.892;5.740;2023-04-19T04:17:19;56200.34;;;-142.21;96.93
5053;BME280;2545;50.892;5.740;2023-04-19T04:19:44;56165.03;;;-142.21;97.39
5053;BME280;2545;50.892;5.740;2023-04-19T04:22:09;56180.72;;;-142.21;97.24
5053;BME280;2545;50.892;5.740;2023-04-19T04:24:38;56135.63;;;-142.21;97.05
5053;BME280;2545;50.892;5.740;2023-04-19T04:27:08;56180.72;;;-142.21;97.41
5053;BME280;2545;50.892;5.740;2023-04-19T04:29:37;56186.59;;;-142.21;97.71
5053;BME280;2545;50.892;5.740;2023-04-19T04:32:06;56190.53;;;-142.21;97.97
5053;BME280;2545;50.892;5.740;2023-04-19T04:34:35;56198.38;;;-142.21;97.89
5053;BME280;2545;50.892;5.740;2023-04-19T04:37:01;56190.53;;;-142.21;98.07
5053;BME280;2545;50.892;5.740;2023-04-19T04:39:28;56178.75;;;-142.21;97.87
5053;BME280;2545;50.892;5.740;2023-04-19T04:41:53;56186.59;;;-142.21;97.94
5053;BME280;2545;50.892;5.740;2023-04-19T04:44:18;56190.53;;;-142.21;98.52
5053;BME280;2545;50.892;5.740;2023-04-19T04:46:46;56180.72;;;-142.21;98.73
5053;BME280;2545;50.892;5.740;2023-04-19T04:49:12;56163.06;;;-142.21;98.82
5053;BME280;2545;50.892;5.740;2023-04-19T04:51:37;56178.75;;;-142.21;98.64
5053;BME280;2545;50.892;5.740;2023-04-19T04:54:03;56157.19;;;-142.21;99.00
5053;BME280;2545;50.892;5.740;2023-04-19T04:56:29;56216.00;;;-142.21;99.92
5053;BME280;2545;50.892;5.740;2023-04-19T04:58:55;56176.78;;;-142.21;99.78
5053;BME280;2545;50.892;5.740;2023-04-19T05:01:21;56178.75;;;-142.21;99.76
5053;BME280;2545;50.892;5.740;2023-04-19T05:03:48;56170.91;;;-142.21;99.86
5053;BME280;2545;50.892;5.740;2023-04-19T05:06:13;56184.66;;;-142.21;99.65
5053;BME280;2545;50.892;5.740;2023-04-19T05:08:39;56178.75;;;-142.21;100.00
5053;BME280;2545;50.892;5.740;2023-04-19T05:11:04;56165.03;;;-142.21;99.45
5053;BME280;2545;50.892;5.740;2023-04-19T05:13:30;56221.91;;;-142.21;99.18
5053;BME280;2545;50.892;5.740;2023-04-19T05:15:55;56178.75;;;-142.21;99.42
5053;BME280;2545;50.892;5.740;2023-04-19T05:18:20;56184.66;;;-142.21;98.79
5053;BME280;2545;50.892;5.740;2023-04-19T05:20:45;56208.16;;;-142.21;98.32
5053;BME280;2545;50.892;5.740;2023-04-19T05:23:11;56194.44;;;-142.21;98.07
5053;BME280;2545;50.892;5.740;2023-04-19T05:25:36;56206.22;;;-142.21;98.16
5053;BME280;2545;50.892;5.740;2023-04-19T05:28:02;56170.91;;;-142.21;98.07
5053;BME280;2545;50.892;5.740;2023-04-19T05:30:27;56159.16;;;-142.21;97.71
5053;BME280;2545;50.892;5.740;2023-04-19T05:32:53;56206.22;;;-142.21;97.26
5053;BME280;2545;50.892;5.740;2023-04-19T05:35:18;56198.38;;;-142.21;96.61
5053;BME280;2545;50.892;5.740;2023-04-19T05:37:44;56145.44;;;-142.21;95.70
5053;BME280;2545;50.892;5.740;2023-04-19T05:40:10;56145.44;;;-142.21;95.38
5053;BME280;2545;50.892;5.740;2023-04-19T05:42:36;56200.34;;;-142.21;95.30
5053;BME280;2545;50.892;5.740;2023-04-19T05:45:01;56178.75;;;-142.21;95.28
5053;BME280;2545;50.892;5.740;2023-04-19T05:47:26;56198.38;;;-142.21;95.02
5053;BME280;2545;50.892;5.740;2023-04-19T05:49:51;56172.88;;;-142.21;94.75
5053;BME280;2545;50.892;5.740;2023-04-19T05:52:17;56192.50;;;-142.21;93.60
5053;BME280;2545;50.892;5.740;2023-04-19T05:54:42;56155.22;;;-142.21;92.39
5053;BME280;2545;50.892;5.740;2023-04-19T05:57:08;56167.00;;;-142.21;91.24
5053;BME280;2545;50.892;5.740;2023-04-19T05:59:33;56151.31;;;-142.21;90.12
5053;BME280;2545;50.892;5.740;2023-04-19T06:01:59;56212.09;;;-142.21;89.42
5053;BME280;2545;50.892;5.740;2023-04-19T06:04:25;56174.84;;;-142.21;87.84
5053;BME280;2545;50.892;5.740;2023-04-19T06:06:51;56167.00;;;-142.21;86.68
5053;BME280;2545;50.892;5.740;2023-04-19T06:09:16;56155.22;;;-142.21;86.28
5053;BME280;2545;50.892;5.740;2023-04-19T06:11:43;56219.94;;;-142.21;84.25
5053;BME280;2545;50.892;5.740;2023-04-19T06:14:09;56163.06;;;-142.21;83.30
5053;BME280;2545;50.892;5.740;2023-04-19T06:16:34;56178.75;;;-142.21;82.93
5053;BME280;2545;50.892;5.740;2023-04-19T06:19:00;56155.22;;;-142.21;83.19
5053;BME280;2545;50.892;5.740;2023-04-19T06:21:25;56216.00;;;-142.21;82.58
5053;BME280;2545;50.892;5.740;2023-04-19T06:23:51;56176.78;;;-142.21;82.17
5053;BME280;2545;50.892;5.740;2023-04-19T06:26:16;56172.88;;;-142.21;81.13
5053;BME280;2545;50.892;5.740;2023-04-19T06:28:41;56178.75;;;-142.21;80.44
5053;BME280;2545;50.892;5.740;2023-04-19T06:31:07;56157.19;;;-142.21;79.02
5053;BME280;2545;50.892;5.740;2023-04-19T06:33:32;56180.72;;;-142.21;78.58
5053;BME280;2545;50.892;5.740;2023-04-19T06:35:57;56141.50;;;-142.21;78.52
5053;BME280;2545;50.892;5.740;2023-04-19T06:38:23;56168.97;;;-142.21;78.63
5053;BME280;2545;50.892;5.740;2023-04-19T06:40:48;56198.38;;;-142.21;78.38
5053;BME280;2545;50.892;5.740;2023-04-19T06:43:13;56182.69;;;-142.21;77.69
5053;BME280;2545;50.892;5.740;2023-04-19T06:45:39;56143.47;;;-142.21;77.43
5053;BME280;2545;50.892;5.740;2023-04-19T06:48:04;56145.44;;;-142.21;76.07
5053;BME280;2545;50.892;5.740;2023-04-19T06:50:29;56174.84;;;-142.21;76.08
5053;BME280;2545;50.892;5.740;2023-04-19T06:52:55;56165.03;;;-142.21;74.27
5053;BME280;2545;50.892;5.740;2023-04-19T06:55:20;56139.53;;;-142.21;72.57
5053;BME280;2545;50.892;5.740;2023-04-19T06:57:46;56151.31;;;-142.21;72.83
5053;BME280;2545;50.892;5.740;2023-04-19T07:00:12;56165.03;;;-142.21;73.15
5053;BME280;2545;50.892;5.740;2023-04-19T07:02:38;56180.72;;;-142.21;73.94
5053;BME280;2545;50.892;5.740;2023-04-19T07:05:03;56170.91;;;-142.21;72.88
5053;BME280;2545;50.892;5.740;2023-04-19T07:07:29;56204.25;;;-142.21;72.10
5053;BME280;2545;50.892;5.740;2023-04-19T07:09:54;56157.19;;;-142.21;71.08
5053;BME280;2545;50.892;5.740;2023-04-19T07:12:20;56168.97;;;-142.21;70.35
5053;BME280;2545;50.892;5.740;2023-04-19T07:14:45;56186.59;;;-142.21;70.16
5053;BME280;2545;50.892;5.740;2023-04-19T07:17:10;56141.50;;;-142.21;69.58
5053;BME280;2545;50.892;5.740;2023-04-19T07:19:37;56167.00;;;-142.21;69.75
5053;BME280;2545;50.892;5.740;2023-04-19T07:22:02;56163.06;;;-142.21;68.79
5053;BME280;2545;50.892;5.740;2023-04-19T07:24:27;56174.84;;;-142.21;66.34
5053;BME280;2545;50.892;5.740;2023-04-19T07:26:54;56161.13;;;-142.21;65.80
5053;BME280;2545;50.892;5.740;2023-04-19T07:29:20;56143.47;;;-142.21;63.83
5053;BME280;2545;50.892;5.740;2023-04-19T07:31:46;56192.50;;;-142.21;64.18
5053;BME280;2545;50.892;5.740;2023-04-19T07:34:11;56168.97;;;-142.21;62.96
5053;BME280;2545;50.892;5.740;2023-04-19T07:36:36;56153.28;;;-142.21;62.31
5053;BME280;2545;50.892;5.740;2023-04-19T07:39:03;56139.53;;;-142.21;63.19
5053;BME280;2545;50.892;5.740;2023-04-19T07:41:30;56159.16;;;-142.21;64.01
5053;BME280;2545;50.892;5.740;2023-04-19T07:43:55;56149.34;;;-142.21;62.66
5053;BME280;2545;50.892;5.740;2023-04-19T07:46:21;56159.16;;;-142.21;62.53
5053;BME280;2545;50.892;5.740;2023-04-19T07:48:46;56137.59;;;-142.21;63.67
5053;BME280;2545;50.892;5.740;2023-04-19T07:51:13;56153.28;;;-142.21;63.67
5053;BME280;2545;50.892;5.740;2023-04-19T07:53:40;56163.06;;;-142.21;63.80
5053;BME280;2545;50.892;5.740;2023-04-19T07:56:07;56149.34;;;-142.21;64.00
5053;BME280;2545;50.892;5.740;2023-04-19T07:58:33;56163.06;;;-142.21;62.83
5053;BME280;2545;50.892;5.740;2023-04-19T08:00:59;56167.00;;;-142.21;62.23
5053;BME280;2545;50.892;5.740;2023-04-19T08:03:25;56149.34;;;-142.21;61.55
5053;BME280;2545;50.892;5.740;2023-04-19T08:05:51;56131.69;;;-142.21;61.59
5053;BME280;2545;50.892;5.740;2023-04-19T08:08:16;56190.53;;;-142.21;61.05
5053;BME280;2545;50.892;5.740;2023-04-19T08:10:42;56145.44;;;-142.21;59.78
5053;BME280;2545;50.892;5.740;2023-04-19T08:13:07;56172.88;;;-142.21;59.38
5053;BME280;2545;50.892;5.740;2023-04-19T08:15:33;56186.59;;;-142.21;58.79
5053;BME280;2545;50.892;5.740;2023-04-19T08:17:59;56108.16;;;-142.21;57.52
5053;BME280;2545;50.892;5.740;2023-04-19T08:20:24;56139.53;;;-142.21;58.44
5053;BME280;2545;50.892;5.740;2023-04-19T08:22:50;56182.69;;;-142.21;57.59
5053;BME280;2545;50.892;5.740;2023-04-19T08:25:15;56141.50;;;-142.21;56.75
5053;BME280;2545;50.892;5.740;2023-04-19T08:27:40;56165.03;;;-142.21;56.15
5053;BME280;2545;50.892;5.740;2023-04-19T08:30:06;56100.31;;;-142.21;56.38
5053;BME280;2545;50.892;5.740;2023-04-19T08:32:32;56110.13;;;-142.21;57.12
5053;BME280;2545;50.892;5.740;2023-04-19T08:34:57;56143.47;;;-142.21;56.91
5053;BME280;2545;50.892;5.740;2023-04-19T08:37:25;56165.03;;;-142.21;55.15
5053;BME280;2545;50.892;5.740;2023-04-19T08:39:50;56123.84;;;-142.21;55.17
5053;BME280;2545;50.892;5.740;2023-04-19T08:42:15;56121.91;;;-142.21;55.22
5053;BME280;2545;50.892;5.740;2023-04-19T08:44:41;56163.06;;;-142.21;54.76
5053;BME280;2545;50.892;5.740;2023-04-19T08:47:07;56127.78;;;-142.21;53.67
5053;BME280;2545;50.892;5.740;2023-04-19T08:49:38;56114.06;;;-142.21;53.16
5053;BME280;2545;50.892;5.740;2023-04-19T08:52:05;56090.53;;;-142.21;54.17
5053;BME280;2545;50.892;5.740;2023-04-19T08:54:30;56135.63;;;-142.21;52.36
5053;BME280;2545;50.892;5.740;2023-04-19T08:57:00;56161.13;;;-142.21;52.49
5053;BME280;2545;50.892;5.740;2023-04-19T08:59:26;56147.38;;;-142.21;52.36
5053;BME280;2545;50.892;5.740;2023-04-19T09:01:53;56149.34;;;-142.21;52.23
5053;BME280;2545;50.892;5.740;2023-04-19T09:04:20;56116.00;;;-142.21;51.34
5053;BME280;2545;50.892;5.740;2023-04-19T09:06:46;56106.22;;;-142.21;51.88
5053;BME280;2545;50.892;5.740;2023-04-19T09:09:26;56123.84;;;-142.21;50.34
5053;BME280;2545;50.892;5.740;2023-04-19T09:11:52;56165.03;;;-142.21;51.29
5053;BME280;2545;50.892;5.740;2023-04-19T09:14:18;56133.66;;;-142.21;51.63
5053;BME280;2545;50.892;5.740;2023-04-19T09:16:44;56116.00;;;-142.21;51.36
5053;BME280;2545;50.892;5.740;2023-04-19T09:19:10;56141.50;;;-142.21;50.58
5053;BME280;2545;50.892;5.740;2023-04-19T09:21:37;56114.06;;;-142.21;49.14
5053;BME280;2545;50.892;5.740;2023-04-19T09:24:03;56100.31;;;-142.21;50.88
5053;BME280;2545;50.892;5.740;2023-04-19T09:26:29;56145.44;;;-142.21;50.30
5053;BME280;2545;50.892;5.740;2023-04-19T09:28:55;56129.75;;;-142.21;49.40
5053;BME280;2545;50.892;5.740;2023-04-19T09:31:22;56133.66;;;-142.21;49.25
5053;BME280;2545;50.892;5.740;2023-04-19T09:33:47;56129.75;;;-142.21;48.41
5053;BME280;2545;50.892;5.740;2023-04-19T09:36:26;56121.91;;;-142.21;47.67
5053;BME280;2545;50.892;5.740;2023-04-19T09:38:52;56108.16;;;-142.21;46.50
5053;BME280;2545;50.892;5.740;2023-04-19T09:41:17;56135.63;;;-142.21;46.07
5053;BME280;2545;50.892;5.740;2023-04-19T09:43:43;56098.38;;;-142.21;45.50
5053;BME280;2545;50.892;5.740;2023-04-19T09:46:08;56133.66;;;-142.21;44.05
5053;BME280;2545;50.892;5.740;2023-04-19T09:48:53;56133.66;;;-142.21;44.79
5053;BME280;2545;50.892;5.740;2023-04-19T09:51:19;56125.81;;;-142.21;44.69
5053;BME280;2545;50.892;5.740;2023-04-19T09:53:44;56106.22;;;-142.21;42.82
5053;BME280;2545;50.892;5.740;2023-04-19T09:56:11;56065.03;;;-142.21;42.41
5053;BME280;2545;50.892;5.740;2023-04-19T09:58:36;56133.66;;;-142.21;44.10
5053;BME280;2545;50.892;5.740;2023-04-19T10:01:03;56086.59;;;-142.21;42.88
5053;BME280;2545;50.892;5.740;2023-04-19T10:03:29;56074.84;;;-142.21;41.63
5053;BME280;2545;50.892;5.740;2023-04-19T10:05:56;56121.91;;;-142.21;40.22
5053;BME280;2545;50.892;5.740;2023-04-19T10:08:22;56049.34;;;-142.21;39.74
5053;BME280;2545;50.892;5.740;2023-04-19T10:10:48;56061.09;;;-142.21;38.87
5053;BME280;2545;50.892;5.740;2023-04-19T10:13:19;56084.63;;;-142.21;37.95
5053;BME280;2545;50.892;5.740;2023-04-19T10:15:48;56082.69;;;-142.21;37.08
5053;BME280;2545;50.892;5.740;2023-04-19T10:18:13;56061.09;;;-142.21;35.30
5053;BME280;2545;50.892;5.740;2023-04-19T10:20:53;56031.69;;;-142.21;34.25
5053;BME280;2545;50.892;5.740;2023-04-19T10:23:20;56033.66;;;-142.21;33.82
5053;BME280;2545;50.892;5.740;2023-04-19T10:25:47;56063.06;;;-142.21;33.40
5053;BME280;2545;50.892;5.740;2023-04-19T10:28:14;56019.94;;;-142.21;32.81
5053;BME280;2545;50.892;5.740;2023-04-19T10:31:02;56017.97;;;-142.21;32.23
5053;BME280;2545;50.892;5.740;2023-04-19T10:33:33;56008.16;;;-142.21;30.84
5053;BME280;2545;50.892;5.740;2023-04-19T10:36:00;55994.44;;;-142.21;30.40
5053;BME280;2545;50.892;5.740;2023-04-19T10:38:43;56037.56;;;-142.21;30.33
5053;BME280;2545;50.892;5.740;2023-04-19T10:41:12;56041.50;;;-142.21;30.30
5053;BME280;2545;50.892;5.740;2023-04-19T10:44:24;56014.06;;;-142.21;28.88
5053;BME280;2545;50.892;5.740;2023-04-19T10:48:56;56017.97;;;-142.21;28.30
5053;BME280;2545;50.892;5.740;2023-04-19T10:51:26;55955.22;;;-142.21;28.63
5053;BME280;2545;50.892;5.740;2023-04-19T10:54:01;55986.59;;;-142.21;28.66
5053;BME280;2545;50.892;5.740;2023-04-19T11:04:04;55968.94;;;-142.21;28.41
5053;BME280;2545;50.892;5.740;2023-04-19T11:06:31;55984.63;;;-142.21;28.17
5053;BME280;2545;50.892;5.740;2023-04-19T11:08:56;55998.38;;;-142.21;27.76
5053;BME280;2545;50.892;5.740;2023-04-19T11:11:22;55992.47;;;-142.21;26.94
5053;BME280;2545;50.892;5.740;2023-04-19T11:13:49;55963.06;;;-142.21;26.99
5053;BME280;2545;50.892;5.740;2023-04-19T11:16:15;55976.78;;;-142.21;26.39
5053;BME280;2545;50.892;5.740;2023-04-19T11:18:40;55992.47;;;-142.21;26.80
5053;BME280;2545;50.892;5.740;2023-04-19T11:21:05;55947.38;;;-142.21;25.78
5053;BME280;2545;50.892;5.740;2023-04-19T11:23:31;55951.31;;;-142.21;25.62
5053;BME280;2545;50.892;5.740;2023-04-19T11:25:57;55927.78;;;-142.21;25.83
5053;BME280;2545;50.892;5.740;2023-04-19T11:28:22;55939.53;;;-142.21;25.51
5053;BME280;2545;50.892;5.740;2023-04-19T11:30:48;55965.03;;;-142.21;25.48
5053;BME280;2545;50.892;5.740;2023-04-19T11:33:14;55929.75;;;-142.21;25.21
5053;BME280;2545;50.892;5.740;2023-04-19T11:35:39;55947.38;;;-142.21;25.39
5053;BME280;2545;50.892;5.740;2023-04-19T11:38:05;55955.22;;;-142.21;25.42
5053;BME280;2545;50.892;5.740;2023-04-19T11:40:31;55970.91;;;-142.21;25.07
5053;BME280;2545;50.892;5.740;2023-04-19T11:42:58;55965.03;;;-142.21;24.47
5053;BME280;2545;50.892;5.740;2023-04-19T11:45:31;56004.25;;;-142.21;24.95
5053;BME280;2545;50.892;5.740;2023-04-19T11:47:57;55943.47;;;-142.21;25.65
5053;BME280;2545;50.892;5.740;2023-04-19T11:52:55;55947.38;;;-142.21;24.02
5053;BME280;2545;50.892;5.740;2023-04-19T11:55:21;55939.53;;;-142.21;24.04
5053;BME280;2545;50.892;5.740;2023-04-19T11:57:47;55949.34;;;-142.21;23.08
5053;BME280;2545;50.892;5.740;2023-04-19T12:00:12;55949.34;;;-142.21;23.67
5053;BME280;2545;50.892;5.740;2023-04-19T12:02:39;55931.69;;;-142.21;23.68
5053;BME280;2545;50.892;5.740;2023-04-19T12:05:12;55917.97;;;-142.21;23.69
5053;BME280;2545;50.892;5.740;2023-04-19T12:08:04;55910.13;;;-142.21;23.32
5053;BME280;2545;50.892;5.740;2023-04-19T12:10:30;55957.19;;;-142.21;23.08
5053;BME280;2545;50.892;5.740;2023-04-19T12:12:56;55931.69;;;-142.21;23.18
5053;BME280;2545;50.892;5.740;2023-04-19T12:15:22;55941.50;;;-142.21;23.10
5053;BME280;2545;50.892;5.740;2023-04-19T12:18:00;55931.69;;;-142.21;23.06
5053;BME280;2545;50.892;5.740;2023-04-19T12:20:34;55933.66;;;-142.21;22.53
5053;BME280;2545;50.892;5.740;2023-04-19T12:23:00;55919.94;;;-142.21;23.08
5053;BME280;2545;50.892;5.740;2023-04-19T12:25:28;55925.81;;;-142.21;22.46
5053;BME280;2545;50.892;5.740;2023-04-19T12:27:53;55886.59;;;-142.21;22.81
5053;BME280;2545;50.892;5.740;2023-04-19T12:30:18;55951.31;;;-142.21;22.85
5053;BME280;2545;50.892;5.740;2023-04-19T12:32:44;55927.78;;;-142.21;22.57
5053;BME280;2545;50.892;5.740;2023-04-19T12:35:09;55943.47;;;-142.21;22.33
5053;BME280;2545;50.892;5.740;2023-04-19T12:37:35;55965.03;;;-142.21;23.18
5053;BME280;2545;50.892;5.740;2023-04-19T12:40:00;55978.75;;;-142.21;22.58
5053;BME280;2545;50.892;5.740;2023-04-19T12:42:25;55933.66;;;-142.21;22.28
5053;BME280;2545;50.892;5.740;2023-04-19T12:44:51;55904.25;;;-142.21;22.58
5053;BME280;2545;50.892;5.740;2023-04-19T12:47:16;55874.84;;;-142.21;22.13
5053;BME280;2545;50.892;5.740;2023-04-19T12:49:41;55900.31;;;-142.21;21.24
5053;BME280;2545;50.892;5.740;2023-04-19T12:52:06;55919.94;;;-142.21;21.69
5053;BME280;2545;50.892;5.740;2023-04-19T12:54:32;55914.06;;;-142.21;21.85
5053;BME280;2545;50.892;5.740;2023-04-19T12:56:57;55904.25;;;-142.21;21.96
5053;BME280;2545;50.892;5.740;2023-04-19T12:59:22;55917.97;;;-142.21;21.64
5053;BME280;2545;50.892;5.740;2023-04-19T13:01:48;55923.84;;;-142.21;22.26
5053;BME280;2545;50.892;5.740;2023-04-19T13:04:13;55908.16;;;-142.21;22.61
5053;BME280;2545;50.892;5.740;2023-04-19T13:06:38;55894.44;;;-142.21;21.60
5053;BME280;2545;50.892;5.740;2023-04-19T13:09:04;55876.78;;;-142.21;21.07